Sunday, September 21, 2014, 10:05 AM EDT

KIPT, Williamsport-lycoming County

Location: Montoursville, PA, United States Lat: 41.25
Local Time: 10:05 AM EDT (14:05 GMT) Lon: -76.917
Time Zone: US/Eastern Elev: 528 ft

Show me the last for .
Show Decoded

2014-09-21 09:54 METAR KIPT 211354Z 09007KT 10SM OVC012 18/14 A2982 RMK AO2 SLP095 T01830144 =
2014-09-21 09:25 METAR KIPT 211325Z 09008KT 10SM BKN014 18/14 A2983 RMK AO2 T01830144 =
2014-09-21 08:54 METAR KIPT 211254Z 09007KT 10SM CLR 18/14 A2983 RMK AO2 SLP099 T01830144 =
2014-09-21 08:17 METAR KIPT 211217Z 10007KT 10SM SCT014 18/14 A2984 =
2014-09-21 07:54 METAR KIPT 211154Z 07008KT 10SM OVC012 18/14 A2986 RMK AO2 SLP107 T01780144
                 10200 20161 58006 =
2014-09-21 07:10 METAR KIPT 211110Z 07008KT 10SM BKN015 BKN021 OVC047 18/14 A2988 RMK AO2
                 T01780144 =
2014-09-21 06:54 METAR KIPT 211054Z 09008KT 10SM FEW016 BKN047 17/14 A2988 RMK AO2 SLP115
                 T01720144 =
2014-09-21 06:39 METAR KIPT 211039Z 08005KT 10SM SCT015 BKN048 17/14 A2988 RMK AO2 T01720144 =
2014-09-21 06:27 METAR KIPT 211027Z 09007KT 10SM BKN015 18/14 A2987 RMK AO2 T01780144 =
2014-09-21 06:16 METAR KIPT 211016Z AUTO 06007KT 10SM SCT015 17/14 A2987 RMK AO2 T01720144 =
2014-09-21 06:05 METAR KIPT 211005Z AUTO 08006KT 10SM BKN015 BKN020 BKN050 17/14 A2986 RMK AO2
                 T01720144 =
2014-09-21 05:54 METAR KIPT 210954Z AUTO 07008KT 10SM SCT017 SCT050 18/14 A2986 RMK AO2 SLP108
                 T01780144 =
2014-09-21 04:54 METAR KIPT 210854Z AUTO 00000KT 10SM CLR 17/14 A2988 RMK AO2 SLP114 T01670139
                 56027 =
2014-09-21 03:54 METAR KIPT 210754Z AUTO 07009KT 10SM FEW060 18/14 A2989 RMK AO2 SLP119 T01830144
                 =
2014-09-21 02:54 METAR KIPT 210654Z AUTO VRB05KT 10SM CLR 19/14 A2992 =
2014-09-21 01:54 METAR KIPT 210554Z AUTO VRB05KT 10SM FEW025 SCT090 19/14 A2996 RMK AO2 SLP141
                 T01940144 10228 20194 58015 =
2014-09-21 00:54 METAR KIPT 210454Z AUTO VRB03G18KT 10SM BKN070 BKN090 21/14 A2998 RMK AO2 SLP150
                 T02060139 402440161 =
2014-09-20 23:54 METAR KIPT 210354Z AUTO 17014G22KT 10SM BKN070 BKN090 21/13 A3000 RMK AO2 PK WND
                 16027/0302 SLP156 T02110133 =
2014-09-20 22:54 METAR KIPT 210254Z AUTO 17020G27KT 10SM BKN075 21/13 A3000 RMK AO2 PK WND
                 15030/0224 SLP156 T02110128 53006 =
2014-09-20 21:54 METAR KIPT 210154Z 17018G27KT 10SM CLR 22/13 A2999 RMK AO2 PK WND 18032/0116
                 SLP152 T02170128 =
2014-09-20 20:54 METAR KIPT 210054Z 17021G28KT 10SM CLR 22/13 A2998 =
2014-09-20 19:54 METAR KIPT 202354Z 16014KT 10SM CLR 23/14 A2998 RMK AO2 SLP150 T02280139 10244
                 20222 56016 =
2014-09-20 18:54 METAR KIPT 202254Z 16013G21KT 10SM CLR 23/14 A3000 RMK AO2 SLP155 T02330139 =
2014-09-20 17:54 METAR KIPT 202154Z 16013G23KT 10SM CLR 24/14 A3001 =
2014-09-20 16:54 METAR KIPT 202054Z 19011G18KT 10SM CLR 24/14 A3003 RMK AO2 SLP166 T02440139
                 56027 =
2014-09-20 15:54 METAR KIPT 201954Z 17010G21KT 10SM CLR 24/14 A3005 RMK AO2 PK WND 16026/1937
                 SLP174 T02390144 =
2014-09-20 14:54 METAR KIPT 201854Z 20010G20KT 170V240 10SM CLR 23/14 A3008 =
2014-09-20 13:54 METAR KIPT 201754Z 17007G18KT 090V220 10SM CLR 23/14 A3011 RMK AO2 SLP194
                 T02280144 10228 20172 56028 =
2014-09-20 12:54 METAR KIPT 201654Z 20008G15KT 10SM SCT044 22/14 A3014 RMK AO2 SLP205 T02220144 =
2014-09-20 11:54 METAR KIPT 201554Z 16012G19KT 10SM FEW047 BKN060 22/14 A3016 RMK AO2 SLP210
                 T02170144 =
2014-09-20 10:54 METAR KIPT 201454Z VRB04G16KT 10SM BKN055 BKN070 20/14 A3019 RMK AO2 SLP222
                 T02000139 58003 =

Support USWX by starting your Amazon purchase here.